createdAt,value
2023-03-12T00:01:19.505Z,5.80
2023-03-12T00:03:47.325Z,5.80
2023-03-12T00:06:14.850Z,5.80
2023-03-12T00:08:41.831Z,5.80
2023-03-12T00:11:12.833Z,5.70
2023-03-12T00:13:40.329Z,5.70
2023-03-12T00:16:12.331Z,5.60
2023-03-12T00:18:39.563Z,5.50
2023-03-12T00:21:06.857Z,5.50
2023-03-12T00:23:34.536Z,5.40
2023-03-12T00:26:02.961Z,5.30
2023-03-12T00:28:30.495Z,5.30
2023-03-12T00:30:58.565Z,5.20
2023-03-12T00:33:26.284Z,5.10
2023-03-12T00:35:53.774Z,5.00
2023-03-12T00:38:20.856Z,5.00
2023-03-12T00:40:47.992Z,5.00
2023-03-12T00:43:16.296Z,4.90
2023-03-12T00:45:43.230Z,4.90
2023-03-12T00:48:10.158Z,4.90
2023-03-12T00:50:37.087Z,4.80
2023-03-12T00:53:04.045Z,4.80
2023-03-12T00:55:30.977Z,4.80
2023-03-12T00:57:57.851Z,4.80
2023-03-12T01:00:25.091Z,4.70
2023-03-12T01:02:52.107Z,4.70
2023-03-12T01:05:19.116Z,4.80
2023-03-12T01:07:46.002Z,4.90
2023-03-12T01:10:14.899Z,4.90
2023-03-12T01:12:42.478Z,4.80
2023-03-12T01:15:10.509Z,4.80
2023-03-12T01:17:37.678Z,4.70
2023-03-12T01:20:06.019Z,4.70
2023-03-12T01:22:32.971Z,4.70
2023-03-12T01:24:59.856Z,4.60
2023-03-12T01:27:26.910Z,4.60
2023-03-12T01:29:53.921Z,4.50
2023-03-12T01:32:20.877Z,4.50
2023-03-12T01:34:47.926Z,4.50
2023-03-12T01:37:14.928Z,4.50
2023-03-12T01:39:41.894Z,4.50
2023-03-12T01:42:08.834Z,4.50
2023-03-12T01:44:54.318Z,4.50
2023-03-12T01:47:21.391Z,4.60
2023-03-12T01:49:49.097Z,4.50
2023-03-12T01:52:19.112Z,4.50
2023-03-12T01:55:01.659Z,4.50
2023-03-12T01:57:32.878Z,4.50
2023-03-12T02:00:08.232Z,4.50
2023-03-12T02:02:35.930Z,4.60
2023-03-12T02:05:13.706Z,4.60
2023-03-12T02:07:40.646Z,4.60
2023-03-12T02:10:07.884Z,4.60
2023-03-12T02:12:34.810Z,4.60
2023-03-12T02:15:02.363Z,4.60
2023-03-12T02:17:30.099Z,4.60
2023-03-12T02:20:16.425Z,4.50
2023-03-12T02:22:46.907Z,4.50
2023-03-12T02:25:16.670Z,4.40
2023-03-12T02:27:43.850Z,4.40
2023-03-12T02:30:11.203Z,4.40
2023-03-12T02:32:39.745Z,4.30
2023-03-12T02:35:06.790Z,4.30
2023-03-12T02:37:33.703Z,4.20
2023-03-12T02:40:06.000Z,4.20
2023-03-12T02:42:33.355Z,4.10
2023-03-12T02:45:00.800Z,4.10
2023-03-12T02:47:27.747Z,4.10
2023-03-12T02:49:54.667Z,4.00
2023-03-12T02:52:21.622Z,4.00
2023-03-12T02:54:48.531Z,4.00
2023-03-12T02:57:15.527Z,4.00
2023-03-12T02:59:42.408Z,4.00
2023-03-12T03:02:09.836Z,4.00
2023-03-12T03:04:36.773Z,4.00
2023-03-12T03:07:03.774Z,4.00
2023-03-12T03:09:30.674Z,3.90
2023-03-12T03:11:57.642Z,3.90
2023-03-12T03:14:24.637Z,3.90
2023-03-12T03:16:51.721Z,3.90
2023-03-12T03:19:18.623Z,3.90
2023-03-12T03:21:45.672Z,3.90
2023-03-12T03:24:12.622Z,3.90
2023-03-12T03:26:39.644Z,3.90
2023-03-12T03:29:06.631Z,3.80
2023-03-12T03:31:33.663Z,3.90
2023-03-12T03:34:00.649Z,3.90
2023-03-12T03:36:27.654Z,3.90
2023-03-12T03:38:54.703Z,3.90
2023-03-12T03:41:23.062Z,3.90
2023-03-12T03:43:50.036Z,3.90
2023-03-12T03:46:17.065Z,3.90
2023-03-12T03:48:44.086Z,3.90
2023-03-12T03:51:12.006Z,3.90
2023-03-12T03:53:38.931Z,3.90
2023-03-12T03:56:07.417Z,3.90
2023-03-12T03:58:34.302Z,3.90
2023-03-12T04:01:01.386Z,3.90
2023-03-12T04:03:28.461Z,3.90
2023-03-12T04:05:56.516Z,3.90
2023-03-12T04:08:23.560Z,3.90
2023-03-12T04:10:50.531Z,3.90
2023-03-12T04:13:17.449Z,3.80
2023-03-12T04:15:51.777Z,3.90
2023-03-12T04:18:19.370Z,3.90
2023-03-12T04:20:46.525Z,4.00
2023-03-12T04:23:13.459Z,4.00
2023-03-12T04:25:40.423Z,4.10
2023-03-12T04:28:09.133Z,4.20
2023-03-12T04:30:38.364Z,4.20
2023-03-12T04:33:06.201Z,4.20
2023-03-12T04:35:33.716Z,4.10
2023-03-12T04:38:02.316Z,4.10
2023-03-12T04:40:29.178Z,4.10
2023-03-12T04:42:56.207Z,4.00
2023-03-12T04:45:23.240Z,4.00
2023-03-12T04:47:50.637Z,4.00
2023-03-12T04:50:17.734Z,4.00
2023-03-12T04:52:44.685Z,3.90
2023-03-12T04:55:11.571Z,3.90
2023-03-12T04:57:38.520Z,3.90
2023-03-12T05:00:10.468Z,4.00
2023-03-12T05:02:38.017Z,3.90
2023-03-12T05:05:05.148Z,3.90
2023-03-12T05:07:32.029Z,3.80
2023-03-12T05:09:58.973Z,3.80
2023-03-12T05:12:26.070Z,3.80
2023-03-12T05:14:52.978Z,3.70
2023-03-12T05:17:19.868Z,3.80
2023-03-12T05:19:46.751Z,3.80
2023-03-12T05:22:13.552Z,3.80
2023-03-12T05:24:40.428Z,3.80
2023-03-12T05:27:08.549Z,3.80
2023-03-12T05:29:35.927Z,3.80
2023-03-12T05:32:03.101Z,3.70
2023-03-12T05:34:30.764Z,3.70
2023-03-12T05:37:02.589Z,3.70
2023-03-12T05:39:32.214Z,3.70
2023-03-12T05:41:59.799Z,3.70
2023-03-12T05:44:26.809Z,3.70
2023-03-12T05:46:57.147Z,3.70
2023-03-12T05:49:25.487Z,3.70
2023-03-12T05:51:52.337Z,3.70
2023-03-12T05:54:22.136Z,3.80
2023-03-12T05:56:49.074Z,3.90
2023-03-12T05:59:15.936Z,3.90
2023-03-12T06:01:43.467Z,3.90
2023-03-12T06:04:10.355Z,3.90
2023-03-12T06:06:38.011Z,3.90
2023-03-12T06:09:05.507Z,3.90
2023-03-12T06:11:33.680Z,3.90
2023-03-12T06:14:00.600Z,4.00
2023-03-12T06:16:27.974Z,4.00
2023-03-12T06:18:58.634Z,4.00
2023-03-12T06:21:27.080Z,4.10
2023-03-12T06:23:57.197Z,4.20
2023-03-12T06:26:24.723Z,4.30
2023-03-12T06:28:52.349Z,4.30
2023-03-12T06:31:20.390Z,4.30
2023-03-12T06:33:47.576Z,4.40
2023-03-12T06:36:14.387Z,4.50
2023-03-12T06:38:42.225Z,4.50
2023-03-12T06:41:18.965Z,4.60
2023-03-12T06:43:46.612Z,4.70
2023-03-12T06:46:14.768Z,4.70
2023-03-12T06:48:47.797Z,4.80
2023-03-12T06:51:15.920Z,4.80
2023-03-12T06:53:42.923Z,4.90
2023-03-12T06:56:10.111Z,4.90
2023-03-12T06:58:37.066Z,5.00
2023-03-12T07:01:04.076Z,5.10
2023-03-12T07:03:31.218Z,5.10
2023-03-12T07:05:58.526Z,5.10
2023-03-12T07:08:26.509Z,5.20
2023-03-12T07:10:53.640Z,5.30
2023-03-12T07:13:20.500Z,5.30
2023-03-12T07:15:47.458Z,5.40
2023-03-12T07:18:14.350Z,5.40
2023-03-12T07:20:42.509Z,5.50
2023-03-12T07:23:09.831Z,5.50
2023-03-12T07:25:37.689Z,5.60
2023-03-12T07:28:05.066Z,5.70
2023-03-12T07:30:33.769Z,5.80
2023-03-12T07:33:01.751Z,5.90
2023-03-12T07:35:29.378Z,5.90
2023-03-12T07:37:56.359Z,5.90
2023-03-12T07:40:23.302Z,6.00
2023-03-12T07:42:51.194Z,6.00
2023-03-12T07:45:18.580Z,6.10
2023-03-12T07:47:45.923Z,6.10
2023-03-12T07:50:13.359Z,6.10
2023-03-12T07:52:40.335Z,6.10
2023-03-12T07:55:07.637Z,6.20
2023-03-12T07:57:34.675Z,6.20
2023-03-12T08:00:01.817Z,6.30
2023-03-12T08:02:28.806Z,6.40
2023-03-12T08:04:55.955Z,6.40
2023-03-12T08:07:22.860Z,6.50
2023-03-12T08:09:50.040Z,6.60
2023-03-12T08:12:17.164Z,6.70
2023-03-12T08:14:44.172Z,6.80
2023-03-12T08:17:11.760Z,6.90
2023-03-12T08:19:38.790Z,6.90
2023-03-12T08:22:06.761Z,6.90
2023-03-12T08:24:33.785Z,7.10
2023-03-12T08:27:00.590Z,7.20
2023-03-12T08:29:28.067Z,7.40
2023-03-12T08:32:04.512Z,7.50
2023-03-12T08:34:31.729Z,7.60
2023-03-12T08:36:58.736Z,7.80
2023-03-12T08:39:25.684Z,8.00
2023-03-12T08:41:55.539Z,8.20
2023-03-12T08:44:23.247Z,8.30
2023-03-12T08:46:50.627Z,8.30
2023-03-12T08:49:17.602Z,8.30
2023-03-12T08:51:44.522Z,8.30
2023-03-12T08:54:11.527Z,8.30
2023-03-12T08:56:42.108Z,8.30
2023-03-12T08:59:12.491Z,8.40
2023-03-12T09:01:43.069Z,8.40
2023-03-12T09:04:11.080Z,8.50
2023-03-12T09:06:38.743Z,8.50
2023-03-12T09:09:05.796Z,8.50
2023-03-12T09:11:33.524Z,8.50
2023-03-12T09:14:57.473Z,8.50
2023-03-12T09:16:47.903Z,8.40
2023-03-12T09:19:14.764Z,8.50
2023-03-12T09:21:42.086Z,8.50
2023-03-12T09:24:10.119Z,8.60
2023-03-12T09:26:37.054Z,8.60
2023-03-12T09:29:04.043Z,8.70
2023-03-12T09:31:31.067Z,8.70
2023-03-12T09:33:57.981Z,8.70
2023-03-12T09:36:24.866Z,8.80
2023-03-12T09:38:51.783Z,8.80
2023-03-12T09:41:24.572Z,9.00
2023-03-12T09:43:54.405Z,9.10
2023-03-12T09:46:33.368Z,9.20
2023-03-12T09:49:02.503Z,9.30
2023-03-12T09:51:35.059Z,9.40
2023-03-12T09:54:04.260Z,9.50
2023-03-12T09:56:31.745Z,9.50
2023-03-12T09:58:58.904Z,9.50
2023-03-12T10:01:28.564Z,9.50
2023-03-12T10:04:14.449Z,9.40
2023-03-12T10:06:49.095Z,9.40
2023-03-12T10:09:21.782Z,9.30
2023-03-12T10:11:55.081Z,9.20
2023-03-12T10:14:37.851Z,9.10
2023-03-12T10:17:10.728Z,9.00
2023-03-12T10:19:47.290Z,8.80
2023-03-12T10:22:14.612Z,8.70
2023-03-12T10:24:56.527Z,8.70
2023-03-12T10:27:26.728Z,8.70
2023-03-12T10:29:54.280Z,8.80
2023-03-12T10:32:21.271Z,8.80
2023-03-12T10:34:48.380Z,8.90
2023-03-12T10:37:21.829Z,8.90
2023-03-12T10:39:49.184Z,8.90
2023-03-12T10:42:20.517Z,8.90
2023-03-12T10:44:57.975Z,8.90
2023-03-12T10:47:33.069Z,9.00
2023-03-12T10:50:20.508Z,9.00
2023-03-12T10:52:48.577Z,9.10
2023-03-12T10:55:21.714Z,9.20
2023-03-12T10:57:49.104Z,9.20
2023-03-12T11:00:22.111Z,9.30
2023-03-12T11:03:00.151Z,9.30
2023-03-12T11:05:29.829Z,9.30
2023-03-12T11:07:57.327Z,9.20
2023-03-12T11:10:25.671Z,9.20
2023-03-12T11:13:00.369Z,9.20
2023-03-12T11:15:36.528Z,9.30
2023-03-12T11:18:21.987Z,9.40
2023-03-12T11:20:50.289Z,9.40
2023-03-12T11:23:37.407Z,9.50
2023-03-12T11:26:10.425Z,9.60
2023-03-12T11:28:44.660Z,9.60
2023-03-12T11:31:15.897Z,9.60
2023-03-12T11:33:42.880Z,9.60
2023-03-12T11:36:09.982Z,9.60
2023-03-12T11:38:46.984Z,9.60
2023-03-12T11:41:25.897Z,9.60
2023-03-12T11:44:00.498Z,9.60
2023-03-12T11:46:34.539Z,9.60
2023-03-12T11:49:20.478Z,9.60
2023-03-12T11:52:05.706Z,9.80
2023-03-12T11:54:36.089Z,9.90
2023-03-12T11:57:09.990Z,10.10
2023-03-12T11:59:43.870Z,10.20
2023-03-12T12:02:30.464Z,10.20
2023-03-12T12:05:16.776Z,10.10
2023-03-12T12:07:47.610Z,9.90
2023-03-12T12:10:33.371Z,9.80
2023-03-12T12:13:19.188Z,9.70
2023-03-12T12:15:53.289Z,9.60
2023-03-12T12:18:36.823Z,9.60
2023-03-12T12:21:06.246Z,9.50
2023-03-12T12:24:02.653Z,9.50
2023-03-12T12:26:33.088Z,9.50
2023-03-12T12:29:11.809Z,9.50
2023-03-12T12:31:53.581Z,9.40
2023-03-12T12:34:40.783Z,9.40
2023-03-12T12:37:26.761Z,9.40
2023-03-12T12:40:05.185Z,9.40
2023-03-12T12:42:33.900Z,9.30
2023-03-12T12:45:03.577Z,9.20
2023-03-12T12:47:56.755Z,9.10
2023-03-12T12:50:25.908Z,9.10
2023-03-12T12:52:56.412Z,9.10
2023-03-12T12:55:27.820Z,9.10
2023-03-12T12:58:01.912Z,9.10
2023-03-12T13:00:35.116Z,9.00
2023-03-12T13:03:02.398Z,8.90
2023-03-12T13:05:41.098Z,8.90
2023-03-12T13:08:10.700Z,8.90
2023-03-12T13:10:45.138Z,9.00
2023-03-12T13:13:21.223Z,9.00
2023-03-12T13:15:48.252Z,9.10
2023-03-12T13:18:18.287Z,9.10
2023-03-12T13:20:48.334Z,9.20
2023-03-12T13:23:33.709Z,9.20
2023-03-12T13:26:06.741Z,9.20
2023-03-12T13:28:38.231Z,9.30
2023-03-12T13:31:23.819Z,9.30
2023-03-12T13:33:52.555Z,9.20
2023-03-12T13:36:23.919Z,9.20
2023-03-12T13:38:53.781Z,9.20
2023-03-12T13:41:37.586Z,9.10
2023-03-12T13:44:25.408Z,9.20
2023-03-12T13:47:10.720Z,9.20
2023-03-12T13:49:41.817Z,9.30
2023-03-12T13:52:14.772Z,9.40
2023-03-12T13:54:43.075Z,9.50
2023-03-12T13:57:32.969Z,9.60
2023-03-12T14:00:00.280Z,9.60
2023-03-12T14:02:29.922Z,9.60
2023-03-12T14:05:03.196Z,9.60
2023-03-12T14:07:53.212Z,9.60
2023-03-12T14:10:30.278Z,9.60
2023-03-12T14:13:15.856Z,9.60
2023-03-12T14:15:47.565Z,9.60
2023-03-12T14:18:17.785Z,9.60
2023-03-12T14:20:50.743Z,9.60
2023-03-12T14:23:18.005Z,9.50
2023-03-12T14:25:46.408Z,9.50
2023-03-12T14:28:19.530Z,9.50
2023-03-12T14:31:04.913Z,9.50
2023-03-12T14:33:36.464Z,9.40
2023-03-12T14:36:06.906Z,9.40
2023-03-12T14:38:35.633Z,9.40
2023-03-12T14:41:04.921Z,9.30
2023-03-12T14:43:35.379Z,9.30
2023-03-12T14:46:05.094Z,9.40
2023-03-12T14:48:36.577Z,9.40
2023-03-12T14:51:04.713Z,9.50
2023-03-12T14:53:31.569Z,9.50
2023-03-12T14:56:10.985Z,9.50
2023-03-12T14:58:46.375Z,9.40
2023-03-12T15:01:15.999Z,9.40
2023-03-12T15:03:53.674Z,9.40
2023-03-12T15:06:29.789Z,9.40
2023-03-12T15:08:57.296Z,9.40
2023-03-12T15:11:25.688Z,9.30
2023-03-12T15:13:53.742Z,9.30
2023-03-12T15:16:21.827Z,9.30
2023-03-12T15:18:50.328Z,9.30
2023-03-12T15:21:17.410Z,9.20
2023-03-12T15:23:46.335Z,9.20
2023-03-12T15:26:19.268Z,9.20
2023-03-12T15:29:02.631Z,9.20
2023-03-12T15:31:49.101Z,9.10
2023-03-12T15:34:28.678Z,9.10
2023-03-12T15:36:55.581Z,9.00
2023-03-12T15:39:27.540Z,9.00
2023-03-12T15:41:55.133Z,9.00
2023-03-12T15:44:23.240Z,9.00
2023-03-12T15:46:54.640Z,9.00
2023-03-12T15:49:30.087Z,9.00
2023-03-12T15:52:05.821Z,9.00
2023-03-12T15:54:33.850Z,9.00
2023-03-12T15:57:19.644Z,9.00
2023-03-12T15:59:50.778Z,9.00
2023-03-12T16:02:34.415Z,8.90
2023-03-12T16:05:01.432Z,8.90
2023-03-12T16:07:28.400Z,8.90
2023-03-12T16:09:55.399Z,8.90
2023-03-12T16:12:22.390Z,8.90
2023-03-12T16:14:49.685Z,8.80
2023-03-12T16:17:23.523Z,8.80
2023-03-12T16:19:50.365Z,8.80
2023-03-12T16:22:17.962Z,8.80
2023-03-12T16:24:44.835Z,8.80
2023-03-12T16:27:18.082Z,8.80
2023-03-12T16:29:47.726Z,8.80
2023-03-12T16:32:15.682Z,8.90
2023-03-12T16:34:43.213Z,8.90
2023-03-12T16:37:10.803Z,8.90
2023-03-12T16:39:37.718Z,8.90
2023-03-12T16:42:05.963Z,8.90
2023-03-12T16:44:34.697Z,8.90
2023-03-12T16:47:01.656Z,8.80
2023-03-12T16:49:28.849Z,8.80
2023-03-12T16:51:55.764Z,8.70
2023-03-12T16:54:22.705Z,8.70
2023-03-12T16:56:49.754Z,8.70
2023-03-12T16:59:27.327Z,8.80
2023-03-12T17:01:54.263Z,8.80
2023-03-12T17:04:21.236Z,8.80
2023-03-12T17:06:48.352Z,8.80
2023-03-12T17:09:15.214Z,8.90
2023-03-12T17:11:42.339Z,8.90
2023-03-12T17:14:17.323Z,8.90
2023-03-12T17:16:44.307Z,8.90
2023-03-12T17:19:11.141Z,8.90
2023-03-12T17:21:38.057Z,8.90
2023-03-12T17:24:05.176Z,8.90
2023-03-12T17:26:32.060Z,8.90
2023-03-12T17:28:59.008Z,8.80
2023-03-12T17:31:26.475Z,8.80
2023-03-12T17:33:53.503Z,8.80
2023-03-12T17:36:20.376Z,8.80
2023-03-12T17:38:48.983Z,8.80
2023-03-12T17:41:26.065Z,8.80
2023-03-12T17:43:54.957Z,8.70
2023-03-12T17:46:22.527Z,8.70
2023-03-12T17:48:49.545Z,8.70
2023-03-12T17:51:17.048Z,8.70
2023-03-12T17:53:44.117Z,8.70
2023-03-12T17:56:12.846Z,8.80
2023-03-12T17:58:39.789Z,8.80
2023-03-12T18:01:06.751Z,8.70
2023-03-12T18:03:33.748Z,8.80
2023-03-12T18:06:01.484Z,8.80
2023-03-12T18:08:28.462Z,8.70
2023-03-12T18:10:55.409Z,8.70
2023-03-12T18:13:22.290Z,8.70
2023-03-12T18:15:53.166Z,8.70
2023-03-12T18:18:20.547Z,8.80
2023-03-12T18:20:48.293Z,8.80
2023-03-12T18:23:15.713Z,8.80
2023-03-12T18:25:42.636Z,8.80
2023-03-12T18:28:09.547Z,8.90
2023-03-12T18:30:36.444Z,8.90
2023-03-12T18:33:03.397Z,8.90
2023-03-12T18:35:30.770Z,8.90
2023-03-12T18:37:57.849Z,8.80
2023-03-12T18:40:24.980Z,8.80
2023-03-12T18:42:51.956Z,8.80
2023-03-12T18:45:18.833Z,8.80
2023-03-12T18:47:50.242Z,8.70
2023-03-12T18:50:17.600Z,8.80
2023-03-12T18:52:44.678Z,8.80
2023-03-12T18:55:15.397Z,8.80
2023-03-12T18:57:46.416Z,8.70
2023-03-12T19:00:14.799Z,8.70
2023-03-12T19:02:42.343Z,8.70
2023-03-12T19:05:11.068Z,8.80
2023-03-12T19:07:39.117Z,8.70
2023-03-12T19:10:06.761Z,8.80
2023-03-12T19:12:45.474Z,8.70
2023-03-12T19:15:16.126Z,8.70
2023-03-12T19:17:42.978Z,8.70
2023-03-12T19:20:10.347Z,8.70
2023-03-12T19:22:37.236Z,8.60
2023-03-12T19:25:04.321Z,8.60
2023-03-12T19:27:31.253Z,8.60
2023-03-12T19:29:58.186Z,8.60
2023-03-12T19:32:27.767Z,8.60
2023-03-12T19:35:00.070Z,8.60
2023-03-12T19:37:26.928Z,8.60
2023-03-12T19:39:53.837Z,8.60
2023-03-12T19:42:21.016Z,8.60
2023-03-12T19:44:49.516Z,8.50
2023-03-12T19:47:18.372Z,8.50
2023-03-12T19:49:45.356Z,8.60
2023-03-12T19:52:12.215Z,8.50
2023-03-12T19:54:39.074Z,8.50
2023-03-12T19:57:05.968Z,8.50
2023-03-12T19:59:32.879Z,8.50
2023-03-12T20:02:01.857Z,8.50
2023-03-12T20:04:29.135Z,8.50
2023-03-12T20:06:56.196Z,8.50
2023-03-12T20:09:23.194Z,8.50
2023-03-12T20:11:50.196Z,8.50
2023-03-12T20:14:17.324Z,8.50
2023-03-12T20:16:44.250Z,8.50
2023-03-12T20:19:11.141Z,8.50
2023-03-12T20:21:39.348Z,8.50
2023-03-12T20:24:07.224Z,8.50
2023-03-12T20:26:34.974Z,8.50
2023-03-12T20:29:02.947Z,8.50
2023-03-12T20:31:33.610Z,8.50
2023-03-12T20:34:01.010Z,8.50
2023-03-12T20:36:28.009Z,8.50
2023-03-12T20:38:54.867Z,8.40
2023-03-12T20:41:21.816Z,8.40
2023-03-12T20:43:48.985Z,8.40
2023-03-12T20:46:15.966Z,8.40
2023-03-12T20:48:42.902Z,8.40
2023-03-12T20:51:09.739Z,8.30
2023-03-12T20:53:36.701Z,8.30
2023-03-12T20:56:05.927Z,8.30
2023-03-12T20:58:33.959Z,8.20
2023-03-12T21:01:01.413Z,8.20
2023-03-12T21:03:28.407Z,8.20
2023-03-12T21:05:56.109Z,8.10
2023-03-12T21:08:23.670Z,8.10
2023-03-12T21:10:50.855Z,8.10
2023-03-12T21:13:21.948Z,8.10
2023-03-12T21:15:49.262Z,8.10
2023-03-12T21:18:16.451Z,8.00
2023-03-12T21:20:43.509Z,7.90
2023-03-12T21:23:10.940Z,7.90
2023-03-12T21:25:43.453Z,7.80
2023-03-12T21:28:10.721Z,7.80
2023-03-12T21:30:37.617Z,7.80
2023-03-12T21:33:04.668Z,7.80
2023-03-12T21:35:31.681Z,7.80
2023-03-12T21:37:59.160Z,7.80
2023-03-12T21:40:26.360Z,7.80
2023-03-12T21:42:53.358Z,7.80
2023-03-12T21:45:20.789Z,7.90
2023-03-12T21:47:47.685Z,7.90
2023-03-12T21:50:14.541Z,7.90
2023-03-12T21:52:44.124Z,7.90
2023-03-12T21:55:11.371Z,7.90
2023-03-12T21:57:38.292Z,8.00
2023-03-12T22:00:06.300Z,8.00
2023-03-12T22:02:33.333Z,8.00
2023-03-12T22:05:01.080Z,8.00
2023-03-12T22:07:31.119Z,8.10
2023-03-12T22:09:58.040Z,8.10
2023-03-12T22:12:24.931Z,8.10
2023-03-12T22:14:51.874Z,8.10
2023-03-12T22:17:18.737Z,8.10
2023-03-12T22:19:45.653Z,8.10
2023-03-12T22:22:12.748Z,8.10
2023-03-12T22:24:39.693Z,8.10
2023-03-12T22:27:07.660Z,8.10
2023-03-12T22:29:34.823Z,8.10
2023-03-12T22:32:02.088Z,8.10
2023-03-12T22:34:29.989Z,8.10
2023-03-12T22:36:56.803Z,8.10
2023-03-12T22:39:23.698Z,8.10
2023-03-12T22:41:51.057Z,8.10
2023-03-12T22:44:17.988Z,8.20
2023-03-12T22:46:44.951Z,8.10
2023-03-12T22:49:12.141Z,8.10
2023-03-12T22:51:39.133Z,8.10
2023-03-12T22:54:06.164Z,8.00
2023-03-12T22:56:33.040Z,8.00
2023-03-12T22:59:00.414Z,7.90
2023-03-12T23:01:27.880Z,7.90
2023-03-12T23:03:55.867Z,8.00
2023-03-12T23:06:25.014Z,8.00
2023-03-12T23:08:53.589Z,8.00
2023-03-12T23:11:22.169Z,7.90
2023-03-12T23:13:50.833Z,7.90
2023-03-12T23:16:20.056Z,7.90
2023-03-12T23:18:47.603Z,7.90
2023-03-12T23:21:20.443Z,7.90
2023-03-12T23:23:48.825Z,7.80
2023-03-12T23:26:18.304Z,7.80
2023-03-12T23:28:47.389Z,7.80
2023-03-12T23:31:15.316Z,7.80
2023-03-12T23:33:42.222Z,7.80
2023-03-12T23:36:11.643Z,7.80
2023-03-12T23:38:38.665Z,7.80
2023-03-12T23:41:13.325Z,7.80
2023-03-12T23:43:40.371Z,7.80
2023-03-12T23:46:08.116Z,7.80
2023-03-12T23:48:36.070Z,7.80
2023-03-12T23:51:08.956Z,7.80
2023-03-12T23:53:36.536Z,7.80
2023-03-12T23:56:04.811Z,7.80
2023-03-12T23:58:32.135Z,7.80
